Time;durP1;ratioP1;P1;durP2;ratioP2;P2;SDS_P1;SDS_P2;PMS_P1;PMS_P2;Temp;Humidity;BMP_temperature;BMP_pressure;BME280_temperature;BME280_humidity;BME280_pressure;Samples;Min_cycle;Max_cycle;Signal;HPM_P1;HPM_P2
2023/11/02 00:04:54;;;;;;;;;;;;;;;6.55;100.00;94388.28;10564721;28;2417;-70
2023/11/02 00:09:57;;;;;;;;;;;;;;;6.60;100.00;94372.22;10564200;27;4761;-70
2023/11/02 00:15:00;;;;;;;;;;;;;;;6.48;100.00;94356.56;10569310;28;2067;-71
2023/11/02 00:20:03;;;;;;;;;;;;;;;6.33;100.00;94347.94;10562481;28;1915;-70
2023/11/02 00:25:07;;;;;;;;;;;;;;;6.40;100.00;94343.84;10558331;28;1890;-70
2023/11/02 00:30:10;;;;;;;;;;;;;;;6.45;100.00;94332.34;10567234;28;2165;-70
2023/11/02 00:35:12;;;;;;;;;;;;;;;6.42;100.00;94340.91;10563303;28;2084;-72
2023/11/02 00:40:15;;;;;;;;;;;;;;;6.37;100.00;94325.75;10577688;27;1920;-69
2023/11/02 00:45:17;;;;;;;;;;;;;;;6.30;100.00;94332.47;10566353;27;2150;-70
2023/11/02 00:50:20;;;;;;;;;;;;;;;6.23;100.00;94319.47;10570504;27;2045;-70
2023/11/02 00:55:23;;;;;;;;;;;;;;;6.24;100.00;94313.06;10575356;27;2018;-70
2023/11/02 01:00:25;;;;;;;;;;;;;;;6.33;100.00;94307.91;10575888;27;2059;-70
2023/11/02 01:05:28;;;;;;;;;;;;;;;6.29;100.00;94315.66;10573743;27;2670;-69
2023/11/02 01:10:30;;;;;;;;;;;;;;;6.27;100.00;94307.16;10563790;27;4796;-70
2023/11/02 01:15:32;;;;;;;;;;;;;;;6.28;100.00;94302.59;10564854;27;1997;-70
2023/11/02 01:20:36;;;;;;;;;;;;;;;6.28;100.00;94276.72;10568810;27;2009;-69
2023/11/02 01:25:38;;;;;;;;;;;;;;;6.20;100.00;94277.34;10571285;27;2196;-74
2023/11/02 01:30:41;;;;;;;;;;;;;;;6.23;100.00;94263.41;10566528;27;2131;-72
2023/11/02 01:35:43;;;;;;;;;;;;;;;6.18;100.00;94242.94;10571676;27;1919;-76
2023/11/02 01:40:46;;;;;;;;;;;;;;;6.10;100.00;94235.53;10573476;27;1887;-70
2023/11/02 01:45:48;;;;;;;;;;;;;;;6.21;100.00;94218.34;10581059;27;1883;-69
2023/11/02 01:50:51;;;;;;;;;;;;;;;6.09;100.00;94198.47;10563798;27;1864;-70
2023/11/02 01:55:53;;;;;;;;;;;;;;;6.06;100.00;94188.38;10574059;27;1992;-68
2023/11/02 02:00:56;;;;;;;;;;;;;;;6.08;100.00;94173.69;10565066;27;2099;-69
2023/11/02 02:05:58;;;;;;;;;;;;;;;6.07;100.00;94152.63;10570539;27;2978;-69
2023/11/02 02:11:01;;;;;;;;;;;;;;;6.02;100.00;94150.00;10565813;27;2134;-70
2023/11/02 02:16:03;;;;;;;;;;;;;;;5.99;100.00;94127.38;10564519;27;1952;-71
2023/11/02 02:21:06;;;;;;;;;;;;;;;5.98;100.00;94112.47;10579133;27;2080;-69
2023/11/02 02:26:09;;;;;;;;;;;;;;;5.96;100.00;94093.25;10555670;27;2009;-71
2023/11/02 02:31:11;;;;;;;;;;;;;;;5.96;100.00;94082.59;10576035;27;1981;-69
2023/11/02 02:36:14;;;;;;;;;;;;;;;5.96;100.00;94071.94;10560081;27;1999;-69
2023/11/02 02:41:16;;;;;;;;;;;;;;;6.01;100.00;94063.06;10568207;27;2119;-68
2023/11/02 02:46:19;;;;;;;;;;;;;;;5.99;100.00;94046.56;10562487;27;1954;-70
2023/11/02 02:51:21;;;;;;;;;;;;;;;6.02;100.00;94048.66;10558408;27;2150;-70
2023/11/02 02:56:24;;;;;;;;;;;;;;;5.99;100.00;94042.03;10565554;27;3232;-70
2023/11/02 03:01:26;;;;;;;;;;;;;;;5.85;100.00;94049.09;10566548;27;2130;-70
2023/11/02 03:06:29;;;;;;;;;;;;;;;5.73;100.00;94046.88;10565063;27;2005;-70
2023/11/02 03:11:31;;;;;;;;;;;;;;;5.78;100.00;94038.78;10566055;27;4776;-70
2023/11/02 03:16:36;;;;;;;;;;;;;;;5.76;100.00;94035.63;10562083;27;1992;-70
2023/11/02 03:21:38;;;;;;;;;;;;;;;5.69;100.00;94024.50;10567956;27;2001;-70
2023/11/02 03:26:41;;;;;;;;;;;;;;;5.62;100.00;94029.41;10567510;27;2125;-70
2023/11/02 03:31:43;;;;;;;;;;;;;;;5.76;100.00;93973.50;10564667;27;2037;-69
2023/11/02 03:36:46;;;;;;;;;;;;;;;5.86;100.00;93962.72;10570348;27;1909;-69
2023/11/02 03:41:48;;;;;;;;;;;;;;;5.92;100.00;93937.59;10557997;28;2905;-72
2023/11/02 03:46:50;;;;;;;;;;;;;;;5.98;100.00;93923.09;10560672;28;1954;-72
2023/11/02 03:51:57;;;;;;;;;;;;;;;6.03;100.00;93909.66;10567432;28;1890;-69
2023/11/02 03:57:00;;;;;;;;;;;;;;;6.31;100.00;93885.78;10565096;28;2009;-69
2023/11/02 04:02:02;;;;;;;;;;;;;;;6.38;100.00;93860.28;10562665;28;2021;-69
2023/11/02 04:07:05;;;;;;;;;;;;;;;6.51;100.00;93840.03;10567393;28;1899;-68
2023/11/02 04:12:07;;;;;;;;;;;;;;;6.64;100.00;93833.13;10573592;27;4587;-69
2023/11/02 04:17:11;;;;;;;;;;;;;;;6.68;100.00;93815.41;10573848;27;1888;-69
2023/11/02 04:22:14;;;;;;;;;;;;;;;6.54;100.00;93796.72;10581201;27;1876;-69
2023/11/02 04:27:16;;;;;;;;;;;;;;;6.44;100.00;93786.25;10578911;27;1960;-69
2023/11/02 04:32:19;;;;;;;;;;;;;;;6.41;100.00;93774.28;10573124;27;2056;-69
2023/11/02 04:37:21;;;;;;;;;;;;;;;6.49;100.00;93760.28;10566726;27;2079;-73
2023/11/02 04:42:23;;;;;;;;;;;;;;;6.54;100.00;93729.22;10572901;27;2843;-70
2023/11/02 04:47:26;;;;;;;;;;;;;;;6.57;100.00;93721.41;10570977;27;2105;-70
2023/11/02 04:52:29;;;;;;;;;;;;;;;6.46;100.00;93739.50;10569573;27;2091;-70
2023/11/02 04:57:31;;;;;;;;;;;;;;;6.40;100.00;93740.69;10580010;27;1987;-70
2023/11/02 05:02:33;;;;;;;;;;;;;;;6.47;100.00;93733.06;10570057;27;1931;-70
2023/11/02 05:07:36;;;;;;;;;;;;;;;6.72;100.00;93690.91;10574853;27;2011;-70
2023/11/02 05:12:39;;;;;;;;;;;;;;;6.82;100.00;93660.56;10574316;27;4675;-70
2023/11/02 05:17:41;;;;;;;;;;;;;;;6.91;100.00;93648.03;10572545;27;1887;-66
2023/11/02 05:22:44;;;;;;;;;;;;;;;6.82;100.00;93637.31;10578196;27;2241;-70
2023/11/02 05:27:46;;;;;;;;;;;;;;;6.79;100.00;93651.25;10577323;27;2923;-69
2023/11/02 05:32:49;;;;;;;;;;;;;;;6.94;100.00;93653.59;10572688;27;1951;-69
2023/11/02 05:37:51;;;;;;;;;;;;;;;6.96;100.00;93623.91;10569873;27;1994;-71
2023/11/02 05:42:53;;;;;;;;;;;;;;;7.01;100.00;93618.44;10570318;27;2110;-70
2023/11/02 05:47:56;;;;;;;;;;;;;;;7.05;100.00;93622.06;10565343;27;2048;-69
2023/11/02 05:52:58;;;;;;;;;;;;;;;7.10;100.00;93629.19;10546280;27;1916;-71
2023/11/02 05:58:01;;;;;;;;;;;;;;;7.16;100.00;93638.66;10559487;28;1853;-70
2023/11/02 06:03:04;;;;;;;;;;;;;;;7.26;100.00;93617.81;10561173;27;2075;-70
2023/11/02 06:08:06;;;;;;;;;;;;;;;7.33;100.00;93577.31;10558375;27;4783;-71
2023/11/02 06:13:09;;;;;;;;;;;;;;;7.29;100.00;93571.00;10566654;27;2809;-72
2023/11/02 06:18:11;;;;;;;;;;;;;;;7.38;100.00;93571.03;10562980;27;2143;-73
2023/11/02 06:23:14;;;;;;;;;;;;;;;7.39;100.00;93560.06;10555846;27;2001;-74
2023/11/02 06:28:18;;;;;;;;;;;;;;;7.51;100.00;93549.56;10566427;27;2252;-69
2023/11/02 06:33:20;;;;;;;;;;;;;;;7.67;100.00;93525.09;10563005;27;2111;-69
2023/11/02 06:38:23;;;;;;;;;;;;;;;7.67;100.00;93504.47;10564169;27;2374;-70
2023/11/02 06:43:26;;;;;;;;;;;;;;;7.64;100.00;93485.59;10561387;27;1954;-71
2023/11/02 06:48:29;;;;;;;;;;;;;;;7.69;100.00;93456.03;10546260;27;2785;-71
2023/11/02 06:53:31;;;;;;;;;;;;;;;7.69;100.00;93443.44;10550390;27;2008;-74
2023/11/02 06:58:33;;;;;;;;;;;;;;;7.76;100.00;93421.59;10559938;27;2790;-69
2023/11/02 07:03:36;;;;;;;;;;;;;;;7.75;100.00;93425.38;10563415;27;2006;-70
2023/11/02 07:08:38;;;;;;;;;;;;;;;7.81;100.00;93435.59;10566820;27;4759;-69
2023/11/02 07:13:40;;;;;;;;;;;;;;;7.95;100.00;93450.72;10571392;28;1971;-68
2023/11/02 07:18:43;;;;;;;;;;;;;;;8.09;100.00;93465.53;10577276;27;2273;-70
2023/11/02 07:23:48;;;;;;;;;;;;;;;8.26;100.00;93429.94;10549434;27;1972;-70
2023/11/02 07:28:51;;;;;;;;;;;;;;;8.58;100.00;93404.59;10565564;27;2203;-72
2023/11/02 07:33:53;;;;;;;;;;;;;;;8.66;100.00;93408.38;10564918;28;1980;-69
2023/11/02 07:38:56;;;;;;;;;;;;;;;8.80;100.00;93410.84;10564482;28;1908;-71
2023/11/02 07:43:59;;;;;;;;;;;;;;;8.94;100.00;93412.22;10564821;28;2099;-75
2023/11/02 07:49:01;;;;;;;;;;;;;;;9.13;100.00;93403.81;10569382;27;3292;-70
2023/11/02 07:54:05;;;;;;;;;;;;;;;9.29;100.00;93420.16;10549026;27;2182;-70
2023/11/02 07:59:08;;;;;;;;;;;;;;;9.46;100.00;93389.75;10573461;27;2062;-70
2023/11/02 08:04:11;;;;;;;;;;;;;;;9.39;100.00;93384.13;10577929;27;1908;-71
2023/11/02 08:09:13;;;;;;;;;;;;;;;9.42;100.00;93380.81;10576301;27;4754;-69
2023/11/02 08:14:17;;;;;;;;;;;;;;;9.52;100.00;93361.66;10558600;27;2396;-69
2023/11/02 08:19:20;;;;;;;;;;;;;;;9.62;100.00;93352.44;10575268;27;2246;-69
2023/11/02 08:24:22;;;;;;;;;;;;;;;9.66;100.00;93351.44;10568929;27;2110;-70
2023/11/02 08:29:25;;;;;;;;;;;;;;;9.74;100.00;93358.66;10569995;27;2159;-69
2023/11/02 08:34:27;;;;;;;;;;;;;;;10.00;100.00;93371.09;10568679;27;2064;-71
2023/11/02 08:39:30;;;;;;;;;;;;;;;10.05;100.00;93362.84;10569498;27;2001;-69
2023/11/02 08:44:35;;;;;;;;;;;;;;;10.08;100.00;93350.66;10563845;27;2005;-70
2023/11/02 08:49:38;;;;;;;;;;;;;;;10.15;100.00;93350.91;10575261;27;2695;-68
2023/11/02 08:54:41;;;;;;;;;;;;;;;10.14;100.00;93344.00;10572859;27;2008;-70
2023/11/02 08:59:44;;;;;;;;;;;;;;;9.73;100.00;93319.53;10574559;27;2240;-69
2023/11/02 09:04:47;;;;;;;;;;;;;;;9.69;100.00;93283.75;10552736;27;2118;-69
2023/11/02 09:09:50;;;;;;;;;;;;;;;9.90;100.00;93277.56;10576488;27;4705;-68
2023/11/02 09:14:52;;;;;;;;;;;;;;;10.20;100.00;93281.72;10555413;28;1992;-70
2023/11/02 09:19:55;;;;;;;;;;;;;;;10.53;100.00;93291.66;10580414;27;1932;-69
2023/11/02 09:24:58;;;;;;;;;;;;;;;10.57;100.00;93273.75;10574307;27;1943;-69
2023/11/02 09:30:00;;;;;;;;;;;;;;;10.97;100.00;93273.09;10578559;27;1990;-70
2023/11/02 09:35:04;;;;;;;;;;;;;;;11.00;100.00;93275.09;10559447;27;2627;-71
2023/11/02 09:40:07;;;;;;;;;;;;;;;11.04;100.00;93260.66;10571139;27;1909;-69
2023/11/02 09:45:10;;;;;;;;;;;;;;;11.15;100.00;93252.94;10567893;27;1968;-70
2023/11/02 09:50:13;;;;;;;;;;;;;;;10.98;100.00;93247.78;10566882;27;1939;-70
2023/11/02 09:55:15;;;;;;;;;;;;;;;11.23;100.00;93249.34;10571577;27;1973;-70
2023/11/02 10:00:18;;;;;;;;;;;;;;;11.56;100.00;93234.91;10568902;27;1992;-68
2023/11/02 10:05:21;;;;;;;;;;;;;;;11.75;100.00;93234.28;10566775;27;2039;-70
2023/11/02 10:10:25;;;;;;;;;;;;;;;11.63;100.00;93224.34;10562092;27;4753;-72
2023/11/02 10:15:28;;;;;;;;;;;;;;;11.56;100.00;93213.38;10568560;27;2111;-70
2023/11/02 10:20:32;;;;;;;;;;;;;;;11.52;100.00;93197.16;10572831;27;2070;-71
2023/11/02 10:25:35;;;;;;;;;;;;;;;11.44;100.00;93178.44;10567269;27;2013;-72
2023/11/02 10:30:37;;;;;;;;;;;;;;;11.33;100.00;93162.81;10563592;27;2071;-69
2023/11/02 10:35:41;;;;;;;;;;;;;;;11.09;100.00;93127.94;10568922;27;2854;-69
2023/11/02 10:40:44;;;;;;;;;;;;;;;11.13;100.00;93130.69;10565420;27;2036;-68
2023/11/02 10:45:46;;;;;;;;;;;;;;;11.05;100.00;93116.28;10565964;27;1864;-75
2023/11/02 10:50:49;;;;;;;;;;;;;;;11.04;100.00;93123.56;10569435;27;1977;-72
2023/11/02 10:55:52;;;;;;;;;;;;;;;11.32;100.00;93128.97;10569913;27;2088;-69
2023/11/02 11:00:55;;;;;;;;;;;;;;;11.42;100.00;93145.75;10566377;27;1982;-69
2023/11/02 11:05:57;;;;;;;;;;;;;;;11.78;100.00;93137.50;10574494;27;2068;-68
2023/11/02 11:11:00;;;;;;;;;;;;;;;11.50;100.00;93123.28;10567084;27;2017;-70
2023/11/02 11:16:03;;;;;;;;;;;;;;;11.43;100.00;93109.66;10563650;27;2297;-70
2023/11/02 11:21:05;;;;;;;;;;;;;;;11.42;100.00;93100.78;10568553;27;2950;-69
2023/11/02 11:26:08;;;;;;;;;;;;;;;11.32;100.00;93091.34;10561785;27;1937;-69
2023/11/02 11:31:10;;;;;;;;;;;;;;;10.90;100.00;93092.81;10569376;27;2075;-68
2023/11/02 11:36:13;;;;;;;;;;;;;;;10.93;100.00;93116.31;10568083;28;2289;-67
2023/11/02 11:41:16;;;;;;;;;;;;;;;10.60;100.00;93111.91;10562436;28;2061;-70
2023/11/02 11:46:19;;;;;;;;;;;;;;;10.49;100.00;93103.50;10566225;28;1872;-69
2023/11/02 11:51:23;;;;;;;;;;;;;;;10.41;100.00;93120.53;10556388;28;2041;-67
2023/11/02 11:56:29;;;;;;;;;;;;;;;10.10;100.00;93133.69;10566181;28;1946;-68
2023/11/02 12:01:31;;;;;;;;;;;;;;;10.04;100.00;93157.28;10563577;28;1903;-69
2023/11/02 12:06:34;;;;;;;;;;;;;;;10.44;100.00;93183.56;10567383;28;1930;-68
2023/11/02 12:11:36;;;;;;;;;;;;;;;10.47;100.00;93233.91;10567563;28;2031;-69
2023/11/02 12:16:39;;;;;;;;;;;;;;;10.06;100.00;93234.81;10558312;28;1978;-68
2023/11/02 12:21:41;;;;;;;;;;;;;;;9.69;100.00;93280.28;10565997;28;2164;-73
2023/11/02 12:26:44;;;;;;;;;;;;;;;9.59;100.00;93323.56;10563230;28;2252;-69
2023/11/02 12:31:46;;;;;;;;;;;;;;;9.29;100.00;93304.06;10559998;28;2072;-70
2023/11/02 12:36:49;;;;;;;;;;;;;;;9.09;100.00;93322.47;10571210;27;2001;-69
2023/11/02 12:41:51;;;;;;;;;;;;;;;9.19;100.00;93332.81;10568601;27;2063;-70
2023/11/02 12:46:58;;;;;;;;;;;;;;;9.30;100.00;93337.81;10571549;27;1917;-69
2023/11/02 12:52:01;;;;;;;;;;;;;;;9.31;100.00;93324.09;10571082;27;3117;-74
2023/11/02 12:57:05;;;;;;;;;;;;;;;9.39;100.00;93338.53;10570425;27;2007;-71
2023/11/02 13:02:11;;;;;;;;;;;;;;;9.51;100.00;93354.72;10563741;28;2062;-70
2023/11/02 13:07:14;;;;;;;;;;;;;;;9.64;100.00;93347.53;10570471;27;1905;-70
2023/11/02 13:12:16;;;;;;;;;;;;;;;9.70;100.00;93349.69;10573682;27;4797;-68
2023/11/02 13:17:24;;;;;;;;;;;;;;;9.80;100.00;93355.78;10569132;27;2048;-69
2023/11/02 13:22:27;;;;;;;;;;;;;;;9.72;100.00;93349.34;10574265;27;2032;-71
2023/11/02 13:27:29;;;;;;;;;;;;;;;9.71;100.00;93342.44;10565191;27;2103;-70
2023/11/02 13:32:31;;;;;;;;;;;;;;;9.65;100.00;93339.16;10570957;27;2021;-69
2023/11/02 13:37:34;;;;;;;;;;;;;;;9.55;100.00;93352.97;10567414;27;2976;-74
2023/11/02 13:42:36;;;;;;;;;;;;;;;9.38;100.00;93334.28;10570508;27;1989;-70
2023/11/02 13:47:39;;;;;;;;;;;;;;;9.27;100.00;93352.63;10573300;27;1904;-70
2023/11/02 13:52:45;;;;;;;;;;;;;;;9.37;100.00;93346.13;10575578;27;2373;-69
2023/11/02 13:57:48;;;;;;;;;;;;;;;9.36;100.00;93347.25;10572236;27;2134;-69
2023/11/02 14:02:50;;;;;;;;;;;;;;;9.40;100.00;93332.06;10568115;27;2066;-68
2023/11/02 14:07:53;;;;;;;;;;;;;;;9.31;100.00;93336.72;10573083;27;3867;-69
2023/11/02 14:12:56;;;;;;;;;;;;;;;9.28;100.00;93340.03;10571304;27;5024;-69
2023/11/02 14:17:58;;;;;;;;;;;;;;;9.14;100.00;93341.03;10562521;27;2024;-69
2023/11/02 14:23:08;;;;;;;;;;;;;;;9.10;100.00;93350.06;10569460;27;2887;-70
2023/11/02 14:28:12;;;;;;;;;;;;;;;9.01;100.00;93352.00;10569848;27;1962;-71
2023/11/02 14:33:15;;;;;;;;;;;;;;;8.93;100.00;93350.94;10565260;27;2152;-69
2023/11/02 14:38:20;;;;;;;;;;;;;;;8.97;100.00;93351.88;10565374;27;1909;-69
2023/11/02 14:43:23;;;;;;;;;;;;;;;8.94;100.00;93325.69;10569794;27;1928;-69
2023/11/02 14:48:25;;;;;;;;;;;;;;;8.77;100.00;93329.22;10571771;27;1892;-69
2023/11/02 14:53:28;;;;;;;;;;;;;;;8.73;100.00;93344.38;10560650;27;2139;-69
2023/11/02 14:58:30;;;;;;;;;;;;;;;8.68;100.00;93328.50;10560048;27;2058;-69
2023/11/02 15:03:33;;;;;;;;;;;;;;;8.66;100.00;93328.81;10567882;27;1863;-70
2023/11/02 15:08:35;;;;;;;;;;;;;;;8.66;100.00;93323.47;10566728;27;4761;-71
2023/11/02 15:13:40;;;;;;;;;;;;;;;8.60;100.00;93315.91;10561779;28;1844;-69
2023/11/02 15:18:43;;;;;;;;;;;;;;;8.60;100.00;93295.28;10566765;27;1985;-70
2023/11/02 15:23:46;;;;;;;;;;;;;;;8.62;100.00;93292.28;10565955;27;1943;-69
2023/11/02 15:28:48;;;;;;;;;;;;;;;8.56;100.00;93297.03;10571203;27;1967;-73
2023/11/02 15:33:51;;;;;;;;;;;;;;;8.57;100.00;93305.84;10565252;27;2043;-69
2023/11/02 15:38:54;;;;;;;;;;;;;;;8.52;100.00;93304.13;10564786;28;2018;-73
2023/11/02 15:43:57;;;;;;;;;;;;;;;8.53;100.00;93300.34;10565503;28;1888;-72
2023/11/02 15:48:59;;;;;;;;;;;;;;;8.43;100.00;93306.03;10571003;28;2579;-71
2023/11/02 15:54:02;;;;;;;;;;;;;;;8.45;100.00;93293.13;10568816;28;1865;-74
2023/11/02 15:59:05;;;;;;;;;;;;;;;8.38;100.00;93293.59;10571349;28;2008;-74
2023/11/02 16:04:08;;;;;;;;;;;;;;;8.29;100.00;93267.97;10570000;28;2017;-69
2023/11/02 16:09:10;;;;;;;;;;;;;;;8.28;100.00;93261.03;10573346;27;4737;-69
2023/11/02 16:14:13;;;;;;;;;;;;;;;8.23;100.00;93229.09;10570432;27;2055;-72
2023/11/02 16:19:16;;;;;;;;;;;;;;;8.27;100.00;93233.50;10569582;27;1914;-71
2023/11/02 16:24:18;;;;;;;;;;;;;;;8.15;100.00;93240.63;10571248;27;2009;-70
2023/11/02 16:29:21;;;;;;;;;;;;;;;8.12;100.00;93255.41;10570891;27;2005;-70
2023/11/02 16:34:28;;;;;;;;;;;;;;;8.10;100.00;93249.59;10567879;27;1868;-74
2023/11/02 16:39:44;;;;;;;;;;;;;;;8.11;100.00;93251.16;10566571;27;2723;-71
2023/11/02 16:44:46;;;;;;;;;;;;;;;8.07;100.00;93277.75;10572923;27;2117;-70
2023/11/02 16:49:50;;;;;;;;;;;;;;;8.10;100.00;93268.31;10570084;27;1980;-70
2023/11/02 16:54:56;;;;;;;;;;;;;;;8.10;100.00;93245.03;10561731;27;1951;-72
2023/11/02 16:59:58;;;;;;;;;;;;;;;8.06;100.00;93249.44;10569213;27;1941;-70
2023/11/02 17:05:01;;;;;;;;;;;;;;;8.06;100.00;93222.69;10570664;27;1872;-70
2023/11/02 17:10:04;;;;;;;;;;;;;;;8.10;100.00;93212.91;10556345;27;2081;-75
2023/11/02 17:15:08;;;;;;;;;;;;;;;8.06;100.00;93195.16;10564465;27;2133;-70
2023/11/02 17:20:11;;;;;;;;;;;;;;;8.12;100.00;93199.22;10577538;27;2001;-70
2023/11/02 17:25:13;;;;;;;;;;;;;;;8.17;100.00;93190.25;10563719;27;2025;-71
2023/11/02 17:30:16;;;;;;;;;;;;;;;8.15;100.00;93192.47;10577353;27;1910;-72
2023/11/02 17:35:18;;;;;;;;;;;;;;;8.07;100.00;93202.84;10577650;27;2549;-72
2023/11/02 17:40:21;;;;;;;;;;;;;;;8.09;100.00;93189.94;10574974;27;1942;-70
2023/11/02 17:45:26;;;;;;;;;;;;;;;8.00;100.00;93177.69;10583050;27;1892;-71
2023/11/02 17:50:28;;;;;;;;;;;;;;;7.98;100.00;93156.63;10577998;27;2032;-70
2023/11/02 17:55:30;;;;;;;;;;;;;;;8.02;100.00;93160.25;10573665;27;1942;-70
2023/11/02 18:00:35;;;;;;;;;;;;;;;7.98;100.00;93169.22;10571973;27;2077;-70
2023/11/02 18:05:38;;;;;;;;;;;;;;;7.96;100.00;93182.91;10570966;27;1972;-69
2023/11/02 18:10:41;;;;;;;;;;;;;;;7.95;100.00;93161.81;10577422;27;1985;-70
2023/11/02 18:15:49;;;;;;;;;;;;;;;7.96;100.00;93169.53;10578618;27;1984;-71
2023/11/02 18:20:51;;;;;;;;;;;;;;;7.94;100.00;93190.47;10573501;27;2269;-69
2023/11/02 18:25:54;;;;;;;;;;;;;;;7.90;100.00;93175.38;10567543;28;1354;-69
2023/11/02 18:30:57;;;;;;;;;;;;;;;7.83;100.00;93146.47;10566181;28;2442;-69
2023/11/02 18:35:59;;;;;;;;;;;;;;;7.68;100.00;93155.78;10572154;27;1913;-69
2023/11/02 18:41:18;;;;;;;;;;;;;;;7.61;100.00;93205.50;10564657;28;1489;-74
2023/11/02 18:46:20;;;;;;;;;;;;;;;7.63;100.00;93211.28;10568405;28;1474;-70
2023/11/02 18:51:23;;;;;;;;;;;;;;;7.58;100.00;93245.13;10564066;28;1258;-69
2023/11/02 18:56:26;;;;;;;;;;;;;;;7.66;100.00;93272.16;10566695;28;1898;-69
2023/11/02 19:01:29;;;;;;;;;;;;;;;7.63;100.00;93256.75;10563279;28;1706;-69
2023/11/02 19:06:32;;;;;;;;;;;;;;;7.57;100.00;93246.25;10551412;28;1626;-69
2023/11/02 19:11:35;;;;;;;;;;;;;;;7.59;100.00;93235.22;10568860;28;4788;-71
2023/11/02 19:16:38;;;;;;;;;;;;;;;7.58;100.00;93252.38;10565643;27;1977;-72
2023/11/02 19:21:41;;;;;;;;;;;;;;;7.52;100.00;93267.00;10558060;28;1464;-70
2023/11/02 19:26:44;;;;;;;;;;;;;;;7.47;100.00;93265.25;10556384;28;2669;-70
2023/11/02 19:31:46;;;;;;;;;;;;;;;7.45;100.00;93272.03;10558280;28;1441;-71
2023/11/02 19:36:49;;;;;;;;;;;;;;;7.39;100.00;93258.03;10562837;28;1905;-70
2023/11/02 19:41:52;;;;;;;;;;;;;;;7.38;100.00;93236.94;10559716;28;1457;-70
2023/11/02 19:46:55;;;;;;;;;;;;;;;7.36;100.00;93234.59;10569087;28;1566;-72
2023/11/02 19:51:57;;;;;;;;;;;;;;;7.39;100.00;93231.31;10569275;28;1396;-71
2023/11/02 19:57:00;;;;;;;;;;;;;;;7.38;100.00;93219.03;10571796;28;1921;-69
2023/11/02 20:02:02;;;;;;;;;;;;;;;7.40;100.00;93208.81;10569901;28;1671;-72
2023/11/02 20:07:06;;;;;;;;;;;;;;;7.41;100.00;93214.94;10567761;28;1562;-72
2023/11/02 20:12:08;;;;;;;;;;;;;;;7.41;100.00;93231.78;10569067;28;4678;-71
2023/11/02 20:17:11;;;;;;;;;;;;;;;7.31;100.00;93205.34;10571137;28;1917;-71
2023/11/02 20:22:13;;;;;;;;;;;;;;;7.31;100.00;93213.38;10564583;28;2589;-71
2023/11/02 20:27:15;;;;;;;;;;;;;;;7.32;100.00;93210.41;10566962;28;1412;-72
2023/11/02 20:32:18;;;;;;;;;;;;;;;7.27;100.00;93212.44;10571068;28;1439;-71
2023/11/02 20:37:20;;;;;;;;;;;;;;;7.21;100.00;93211.03;10569160;28;1971;-71
2023/11/02 20:42:23;;;;;;;;;;;;;;;7.12;100.00;93189.63;10565040;28;1489;-71
2023/11/02 20:47:26;;;;;;;;;;;;;;;7.11;100.00;93171.25;10545586;28;7150;-70
2023/11/02 20:52:28;;;;;;;;;;;;;;;7.03;100.00;93186.97;10553041;28;5915;-72
2023/11/02 20:57:31;;;;;;;;;;;;;;;7.03;100.00;93192.31;10568625;28;2056;-71
2023/11/02 21:02:33;;;;;;;;;;;;;;;7.01;100.00;93161.69;10568851;27;5530;-73
2023/11/02 21:07:36;;;;;;;;;;;;;;;6.91;100.00;93114.72;10566234;27;1899;-71
2023/11/02 21:12:39;;;;;;;;;;;;;;;6.98;100.00;93116.91;10564218;27;2135;-73
2023/11/02 21:17:42;;;;;;;;;;;;;;;6.97;100.00;93076.06;10561166;27;3045;-75
2023/11/02 21:22:45;;;;;;;;;;;;;;;7.01;100.00;93086.91;10567219;27;2067;-71
2023/11/02 21:27:47;;;;;;;;;;;;;;;7.00;100.00;93110.16;10565177;27;1903;-71
2023/11/02 21:32:50;;;;;;;;;;;;;;;7.09;100.00;93099.47;10563948;27;1885;-72
2023/11/02 21:37:52;;;;;;;;;;;;;;;7.08;100.00;93102.44;10566044;27;1985;-72
2023/11/02 21:42:55;;;;;;;;;;;;;;;7.12;100.00;93114.06;10569063;27;2928;-72
2023/11/02 21:47:58;;;;;;;;;;;;;;;7.15;100.00;93140.94;10572587;27;1896;-74
2023/11/02 21:53:00;;;;;;;;;;;;;;;7.10;100.00;93164.34;10566922;27;5188;-71
2023/11/02 21:58:03;;;;;;;;;;;;;;;7.07;100.00;93155.09;10567152;27;1988;-71
2023/11/02 22:03:06;;;;;;;;;;;;;;;7.09;100.00;93149.44;10567907;27;1908;-72
2023/11/02 22:08:08;;;;;;;;;;;;;;;7.12;100.00;93135.44;10567460;27;2031;-70
2023/11/02 22:13:11;;;;;;;;;;;;;;;7.05;100.00;93117.19;10563045;27;2003;-71
2023/11/02 22:18:13;;;;;;;;;;;;;;;7.13;100.00;93079.03;10558242;27;1918;-71
2023/11/02 22:23:16;;;;;;;;;;;;;;;7.11;100.00;93067.84;10563958;27;2103;-69
2023/11/02 22:28:18;;;;;;;;;;;;;;;7.17;100.00;93042.53;10568766;27;2934;-75
2023/11/02 22:33:21;;;;;;;;;;;;;;;7.13;100.00;93080.91;10563142;27;1999;-70
2023/11/02 22:38:23;;;;;;;;;;;;;;;7.02;100.00;93099.16;10562045;27;1915;-71
2023/11/02 22:43:25;;;;;;;;;;;;;;;6.99;100.00;93100.56;10565906;27;1967;-69
2023/11/02 22:48:28;;;;;;;;;;;;;;;6.94;100.00;93066.03;10560853;27;2143;-71
2023/11/02 22:53:31;;;;;;;;;;;;;;;6.90;100.00;93051.72;10559990;27;2087;-72
2023/11/02 22:58:33;;;;;;;;;;;;;;;6.91;100.00;93026.59;10561791;27;2065;-71
2023/11/02 23:03:36;;;;;;;;;;;;;;;6.87;100.00;93006.97;10558606;27;1904;-72
2023/11/02 23:08:39;;;;;;;;;;;;;;;6.87;100.00;93001.63;10570070;27;2856;-73
2023/11/02 23:13:43;;;;;;;;;;;;;;;6.88;100.00;93040.59;10563623;27;1987;-72
2023/11/02 23:18:46;;;;;;;;;;;;;;;6.91;100.00;93069.31;10566018;27;1951;-75
2023/11/02 23:23:48;;;;;;;;;;;;;;;6.90;100.00;93070.41;10564389;27;2123;-74
2023/11/02 23:28:51;;;;;;;;;;;;;;;6.91;100.00;93061.28;10564051;27;2008;-74
2023/11/02 23:34:07;;;;;;;;;;;;;;;6.93;100.00;93074.31;10565827;28;1860;-69
2023/11/02 23:39:10;;;;;;;;;;;;;;;6.93;100.00;93060.97;10544804;28;2017;-70
2023/11/02 23:44:12;;;;;;;;;;;;;;;6.89;100.00;93063.50;10565636;27;2064;-69
2023/11/02 23:49:15;;;;;;;;;;;;;;;6.94;100.00;93059.91;10559890;28;2723;-70
2023/11/02 23:54:18;;;;;;;;;;;;;;;6.85;100.00;93067.91;10568548;28;5062;-70
2023/11/02 23:59:22;;;;;;;;;;;;;;;6.83;100.00;93054.09;10565764;28;1984;-71
